Time;durP1;ratioP1;P1;durP2;ratioP2;P2;SDS_P1;SDS_P2;PMS_P1;PMS_P2;Temp;Humidity;BMP_temperature;BMP_pressure;BME280_temperature;BME280_humidity;BME280_pressure;Samples;Min_cycle;Max_cycle;Signal;HPM_P1;HPM_P2
2022/06/09 00:00:57;;;;;;;;;0.00;0.00;22.70;99.90;;;;;;4932518;28;9884;-55
2022/06/09 00:03:39;;;;;;;;;0.00;0.00;22.70;99.90;;;;;;4938576;28;8894;-50
2022/06/09 00:06:12;;;;;;;;;0.00;0.00;22.70;99.90;;;;;;4933549;28;8861;-53
2022/06/09 00:08:48;;;;;;;;;0.00;0.00;22.70;99.90;;;;;;4931719;28;8854;-49
2022/06/09 00:11:22;;;;;;;;;1.00;0.00;22.80;99.90;;;;;;4931873;28;8889;-53
2022/06/09 00:13:53;;;;;;;;;0.00;0.00;22.70;99.90;;;;;;4936315;28;8874;-50
2022/06/09 00:16:26;;;;;;;;;0.25;0.25;22.70;99.90;;;;;;4930221;28;8830;-52
2022/06/09 00:18:56;;;;;;;;;0.00;0.00;22.70;99.90;;;;;;4937177;28;8850;-51
2022/06/09 00:21:25;;;;;;;;;0.00;0.00;22.70;99.90;;;;;;4928731;28;8945;-52
2022/06/09 00:23:57;;;;;;;;;0.25;0.25;22.80;99.90;;;;;;4942800;28;8877;-52
2022/06/09 00:26:27;;;;;;;;;0.00;0.00;22.80;99.90;;;;;;4928826;28;8877;-52
2022/06/09 00:28:57;;;;;;;;;0.00;0.00;22.80;99.90;;;;;;4950319;28;8907;-51
2022/06/09 00:31:28;;;;;;;;;0.50;0.50;22.90;99.90;;;;;;4929948;28;8856;-51
2022/06/09 00:34:00;;;;;;;;;2.00;0.00;22.90;99.90;;;;;;4928844;28;8884;-52
2022/06/09 00:36:30;;;;;;;;;2.00;0.00;23.00;99.90;;;;;;4932123;28;8845;-54
2022/06/09 00:39:01;;;;;;;;;0.00;0.00;23.00;99.90;;;;;;4935861;28;8845;-53
2022/06/09 00:41:36;;;;;;;;;0.25;0.25;23.00;99.90;;;;;;4935992;28;8878;-55
2022/06/09 00:44:23;;;;;;;;;0.00;0.00;23.00;99.90;;;;;;4928602;28;9555;-53
2022/06/09 00:47:07;;;;;;;;;0.50;0.50;23.00;99.90;;;;;;4923324;28;8894;-51
2022/06/09 00:49:49;;;;;;;;;1.00;0.00;23.00;99.90;;;;;;4931012;28;8872;-52
2022/06/09 00:52:21;;;;;;;;;0.00;0.00;23.00;99.90;;;;;;4934566;28;8944;-51
2022/06/09 00:54:56;;;;;;;;;0.00;0.00;23.00;99.90;;;;;;4934137;28;8888;-53
2022/06/09 00:57:36;;;;;;;;;0.00;0.00;23.00;99.90;;;;;;4931393;28;9606;-50
2022/06/09 01:00:15;;;;;;;;;0.00;0.00;23.00;99.90;;;;;;4933180;28;9590;-52
2022/06/09 01:02:46;;;;;;;;;0.50;0.50;23.00;99.90;;;;;;4927488;28;8876;-48
2022/06/09 01:05:21;;;;;;;;;0.00;0.00;23.00;99.90;;;;;;4894551;28;8841;-53
2022/06/09 01:07:54;;;;;;;;;0.00;0.00;22.90;99.90;;;;;;4931551;28;8891;-52
2022/06/09 01:10:27;;;;;;;;;0.00;0.00;22.70;99.90;;;;;;4934707;28;8830;-50
2022/06/09 01:12:59;;;;;;;;;0.00;0.00;22.70;99.90;;;;;;4937156;28;8873;-53
2022/06/09 01:15:39;;;;;;;;;0.00;0.00;22.70;99.90;;;;;;4934255;28;8899;-52
2022/06/09 01:18:52;;;;;;;;;0.00;0.00;22.60;99.90;;;;;;4930156;28;9047;-51
2022/06/09 01:21:42;;;;;;;;;1.50;0.00;22.60;99.90;;;;;;4917903;28;8993;-53
2022/06/09 01:24:38;;;;;;;;;0.00;0.00;22.50;99.90;;;;;;4936812;28;8866;-52
2022/06/09 01:27:19;;;;;;;;;1.00;1.00;22.50;99.90;;;;;;4930387;28;8963;-52
2022/06/09 01:30:12;;;;;;;;;0.50;0.50;22.50;99.90;;;;;;4928640;28;9014;-51
2022/06/09 01:33:08;;;;;;;;;0.00;0.00;22.50;99.90;;;;;;4935126;28;8913;-49
2022/06/09 01:36:04;;;;;;;;;0.00;0.00;22.40;99.90;;;;;;4934631;28;9008;-50
2022/06/09 01:38:57;;;;;;;;;0.00;0.00;22.40;99.90;;;;;;4925611;28;8845;-51
2022/06/09 01:41:27;;;;;;;;;0.00;0.00;22.40;99.90;;;;;;4937004;28;9027;-51
2022/06/09 01:44:00;;;;;;;;;0.00;0.00;22.40;99.90;;;;;;4936887;28;8855;-52
2022/06/09 01:46:35;;;;;;;;;0.00;0.00;22.30;99.90;;;;;;4927655;28;8880;-51
2022/06/09 01:49:11;;;;;;;;;0.00;0.00;22.30;99.90;;;;;;4938580;28;8870;-52
2022/06/09 01:51:46;;;;;;;;;1.00;1.00;22.30;99.90;;;;;;4929732;28;8934;-52
2022/06/09 01:54:35;;;;;;;;;0.00;0.00;22.30;99.90;;;;;;4932726;28;9603;-53
2022/06/09 01:57:13;;;;;;;;;0.50;0.50;22.20;99.90;;;;;;4918620;28;8857;-47
2022/06/09 01:59:49;;;;;;;;;2.00;1.00;22.20;99.90;;;;;;4930906;28;8869;-52
2022/06/09 02:02:28;;;;;;;;;0.00;0.00;22.10;99.90;;;;;;4934352;28;8860;-48
2022/06/09 02:05:06;;;;;;;;;0.00;0.00;22.20;99.90;;;;;;4934171;28;9009;-53
2022/06/09 02:07:37;;;;;;;;;0.00;0.00;22.10;99.90;;;;;;4932823;28;8874;-52
2022/06/09 02:10:30;;;;;;;;;0.00;0.00;22.10;99.90;;;;;;4944085;28;8886;-49
2022/06/09 02:13:13;;;;;;;;;0.50;0.50;22.10;99.90;;;;;;4929749;28;8997;-53
2022/06/09 02:15:47;;;;;;;;;0.00;0.00;21.90;99.90;;;;;;4926309;28;9588;-51
2022/06/09 02:18:20;;;;;;;;;1.00;1.00;21.90;99.90;;;;;;4931210;28;8874;-52
2022/06/09 02:21:03;;;;;;;;;1.00;1.00;21.80;99.90;;;;;;4933553;28;8873;-51
2022/06/09 02:23:34;;;;;;;;;0.00;0.00;21.80;99.90;;;;;;4928999;28;8880;-54
2022/06/09 02:26:05;;;;;;;;;0.25;0.25;21.80;99.90;;;;;;4925016;28;9705;-52
2022/06/09 02:28:36;;;;;;;;;0.25;0.25;21.70;99.90;;;;;;4924945;28;9245;-52
2022/06/09 02:31:06;;;;;;;;;1.00;1.00;21.70;99.90;;;;;;4940157;28;8850;-49
2022/06/09 02:33:37;;;;;;;;;0.00;0.00;21.60;99.90;;;;;;4923920;28;8856;-52
2022/06/09 02:36:08;;;;;;;;;0.25;0.25;21.60;99.90;;;;;;4927269;28;8891;-53
2022/06/09 02:38:38;;;;;;;;;1.00;1.00;21.60;99.90;;;;;;4928114;28;8857;-51
2022/06/09 02:41:10;;;;;;;;;0.00;0.00;21.60;99.90;;;;;;4931588;28;8857;-53
2022/06/09 02:43:42;;;;;;;;;1.00;1.00;21.50;99.90;;;;;;4925694;28;9032;-51
2022/06/09 02:46:14;;;;;;;;;1.50;0.75;21.50;99.90;;;;;;4935984;28;8864;-48
2022/06/09 02:48:45;;;;;;;;;1.00;1.00;21.50;99.90;;;;;;4932513;28;8861;-51
2022/06/09 02:51:28;;;;;;;;;0.75;0.75;21.60;99.90;;;;;;4930405;28;8885;-51
2022/06/09 02:54:07;;;;;;;;;1.00;1.00;21.50;99.90;;;;;;4929863;28;8900;-50
2022/06/09 02:56:39;;;;;;;;;0.75;0.75;21.40;99.90;;;;;;4928029;28;8866;-51
2022/06/09 02:59:12;;;;;;;;;1.00;1.00;21.30;99.90;;;;;;4928017;28;8905;-50
2022/06/09 03:01:43;;;;;;;;;0.25;0.25;21.30;99.90;;;;;;4929567;28;8888;-53
2022/06/09 03:04:13;;;;;;;;;1.00;1.00;21.20;99.90;;;;;;4932003;28;8877;-52
2022/06/09 03:06:43;;;;;;;;;1.00;1.00;21.20;99.90;;;;;;4935634;28;8880;-54
2022/06/09 03:09:14;;;;;;;;;0.00;0.00;21.10;99.90;;;;;;4940439;28;8846;-53
2022/06/09 03:11:43;;;;;;;;;0.25;0.25;21.10;99.90;;;;;;4939789;28;8877;-51
2022/06/09 03:14:16;;;;;;;;;1.00;1.00;21.00;99.90;;;;;;4938167;28;8905;-52
2022/06/09 03:16:47;;;;;;;;;1.25;1.25;20.90;99.90;;;;;;4931270;28;8868;-52
2022/06/09 03:19:19;;;;;;;;;1.00;1.00;20.70;99.90;;;;;;4934047;28;8881;-51
2022/06/09 03:21:49;;;;;;;;;0.00;0.00;20.80;99.90;;;;;;4933994;28;8892;-51
2022/06/09 03:24:20;;;;;;;;;1.00;1.00;20.60;99.90;;;;;;4933629;28;8971;-50
2022/06/09 03:26:51;;;;;;;;;1.25;0.75;20.70;99.90;;;;;;4934193;28;8880;-53
2022/06/09 03:29:22;;;;;;;;;1.00;1.00;20.60;99.90;;;;;;4927617;28;8883;-52
2022/06/09 03:31:53;;;;;;;;;0.00;0.00;20.60;99.90;;;;;;4939816;28;9257;-51
2022/06/09 03:34:24;;;;;;;;;0.00;0.00;20.60;99.90;;;;;;4933564;28;8963;-53
2022/06/09 03:36:54;;;;;;;;;0.67;0.67;20.50;99.90;;;;;;4933755;28;9678;-51
2022/06/09 03:39:27;;;;;;;;;1.00;1.00;20.50;99.90;;;;;;4936202;28;9222;-50
2022/06/09 03:41:57;;;;;;;;;1.00;1.00;20.50;99.90;;;;;;4934941;28;8853;-52
2022/06/09 03:44:27;;;;;;;;;1.00;1.00;20.50;99.90;;;;;;4936358;28;8960;-48
2022/06/09 03:46:58;;;;;;;;;0.00;0.00;20.40;99.90;;;;;;4933664;28;9139;-52
2022/06/09 03:49:28;;;;;;;;;0.00;0.00;20.50;99.90;;;;;;4934310;28;9207;-53
2022/06/09 03:51:58;;;;;;;;;1.00;1.00;20.40;99.90;;;;;;4934405;28;9119;-51
2022/06/09 03:54:28;;;;;;;;;1.00;1.00;20.30;99.90;;;;;;4928228;28;9849;-52
2022/06/09 03:56:59;;;;;;;;;0.00;0.00;20.20;99.90;;;;;;4930652;28;9269;-52
2022/06/09 03:59:30;;;;;;;;;0.67;0.67;20.20;99.90;;;;;;4936347;28;9245;-51
2022/06/09 04:02:01;;;;;;;;;0.67;0.67;20.20;99.90;;;;;;4940686;28;9126;-53
2022/06/09 04:04:32;;;;;;;;;0.67;0.67;20.10;99.90;;;;;;4932035;28;9208;-53
2022/06/09 04:07:02;;;;;;;;;0.67;0.67;20.10;99.90;;;;;;4929132;28;9168;-52
2022/06/09 04:09:32;;;;;;;;;1.00;1.00;20.00;99.90;;;;;;4935489;28;9280;-53
2022/06/09 04:12:03;;;;;;;;;0.67;0.67;20.00;99.90;;;;;;4943074;28;9199;-52
2022/06/09 04:14:33;;;;;;;;;1.00;1.00;20.00;99.90;;;;;;4929550;28;9339;-52
2022/06/09 04:17:04;;;;;;;;;1.00;1.00;20.00;99.90;;;;;;4935164;28;10031;-54
2022/06/09 04:19:35;;;;;;;;;0.67;0.67;20.00;99.90;;;;;;4932366;28;9316;-50
2022/06/09 04:22:08;;;;;;;;;1.00;1.00;19.90;99.90;;;;;;4930784;28;9342;-52
2022/06/09 04:24:37;;;;;;;;;0.67;0.67;19.90;99.90;;;;;;4936972;28;10106;-49
2022/06/09 04:27:09;;;;;;;;;1.00;1.00;19.90;99.90;;;;;;4933771;28;9260;-53
2022/06/09 04:29:39;;;;;;;;;1.00;1.00;19.80;99.90;;;;;;4925668;28;9911;-50
2022/06/09 04:32:09;;;;;;;;;2.33;1.33;19.80;99.90;;;;;;4932457;28;9365;-50
2022/06/09 04:34:42;;;;;;;;;2.00;2.00;19.80;99.90;;;;;;4937510;28;9204;-52
2022/06/09 04:37:11;;;;;;;;;0.33;0.33;19.80;99.90;;;;;;4939074;28;9332;-51
2022/06/09 04:39:43;;;;;;;;;0.00;0.00;19.70;99.90;;;;;;4934500;28;9278;-52
2022/06/09 04:42:14;;;;;;;;;1.00;0.33;19.70;99.90;;;;;;4934613;28;9162;-51
2022/06/09 04:44:44;;;;;;;;;1.00;1.00;19.70;99.90;;;;;;4941884;28;9214;-50
2022/06/09 04:47:16;;;;;;;;;1.00;1.00;19.60;99.90;;;;;;4924775;28;9209;-52
2022/06/09 04:49:46;;;;;;;;;1.00;1.00;19.60;99.90;;;;;;4931863;28;9351;-49
2022/06/09 04:52:17;;;;;;;;;0.00;0.00;19.50;99.90;;;;;;4928925;28;9450;-52
2022/06/09 04:54:48;;;;;;;;;0.67;0.67;19.50;99.90;;;;;;4893141;28;9358;-52
2022/06/09 04:57:22;;;;;;;;;0.67;0.67;19.50;99.90;;;;;;4925206;28;9288;-51
2022/06/09 04:59:51;;;;;;;;;2.00;1.00;19.40;99.90;;;;;;4943429;28;10929;-52
2022/06/09 05:02:23;;;;;;;;;1.00;1.00;19.40;99.90;;;;;;4927744;28;9373;-52
2022/06/09 05:04:54;;;;;;;;;1.00;1.00;19.40;99.90;;;;;;4928728;28;9363;-48
2022/06/09 05:07:25;;;;;;;;;0.67;0.67;19.40;99.90;;;;;;4921753;28;9414;-50
2022/06/09 05:09:55;;;;;;;;;2.00;2.00;19.40;99.90;;;;;;4929259;28;9389;-49
2022/06/09 05:12:27;;;;;;;;;0.00;0.00;19.30;99.90;;;;;;4922888;28;9517;-52
2022/06/09 05:15:05;;;;;;;;;0.67;0.67;19.20;99.90;;;;;;4939551;28;9320;-50
2022/06/09 05:17:36;;;;;;;;;0.67;0.67;19.30;99.90;;;;;;4920024;28;10128;-48
2022/06/09 05:20:08;;;;;;;;;1.00;1.00;19.20;99.90;;;;;;4928131;28;9562;-50
2022/06/09 05:22:38;;;;;;;;;0.00;0.00;19.20;99.90;;;;;;4940557;28;9573;-51
2022/06/09 05:25:09;;;;;;;;;0.00;0.00;19.20;99.90;;;;;;4931598;28;9331;-50
2022/06/09 05:27:40;;;;;;;;;0.00;0.00;19.20;99.90;;;;;;4926381;28;9399;-47
2022/06/09 05:30:15;;;;;;;;;0.33;0.33;19.20;99.90;;;;;;4932227;28;9417;-51
2022/06/09 05:32:46;;;;;;;;;2.00;2.00;19.10;99.90;;;;;;4929646;28;9603;-49
2022/06/09 05:35:16;;;;;;;;;0.00;0.00;19.10;99.90;;;;;;4931976;28;10276;-51
2022/06/09 05:46:17;;;;;;;;;0.75;0.75;18.90;99.90;;;;;;4935588;28;9527;-51
2022/06/09 05:48:48;;;;;;;;;1.00;1.00;18.80;99.90;;;;;;4931132;28;9565;-53
2022/06/09 05:51:19;;;;;;;;;0.00;0.00;18.80;99.90;;;;;;4928517;28;9740;-48
2022/06/09 05:53:51;;;;;;;;;2.00;0.00;18.70;99.90;;;;;;4931171;28;9720;-51
2022/06/09 05:56:20;;;;;;;;;0.00;0.00;18.70;99.90;;;;;;4935095;28;9782;-48
2022/06/09 05:58:50;;;;;;;;;0.25;0.25;18.70;99.90;;;;;;4927554;28;10554;-51
2022/06/09 06:01:20;;;;;;;;;2.00;0.00;18.60;99.90;;;;;;4930671;28;10692;-51
2022/06/09 06:03:51;;;;;;;;;1.50;0.00;18.60;99.90;;;;;;4937458;28;11152;-50
2022/06/09 06:06:34;;;;;;;;;0.25;0.25;18.60;99.90;;;;;;4924331;28;10440;-51
2022/06/09 06:09:16;;;;;;;;;8.00;7.00;18.60;99.90;;;;;;4925188;28;10882;-52
2022/06/09 06:11:47;;;;;;;;;6.75;6.75;18.50;99.90;;;;;;4926856;28;10959;-48
2022/06/09 06:14:20;;;;;;;;;8.50;8.50;18.60;99.90;;;;;;4924895;28;11065;-50
2022/06/09 06:16:51;;;;;;;;;10.00;10.00;18.50;99.90;;;;;;4931073;28;10627;-49
2022/06/09 06:19:23;;;;;;;;;9.75;9.75;18.50;99.90;;;;;;4921235;28;10579;-49
2022/06/09 06:21:53;;;;;;;;;14.00;11.00;18.50;99.90;;;;;;4931719;28;11707;-51
2022/06/09 06:24:25;;;;;;;;;9.50;9.50;18.50;99.90;;;;;;4925408;28;10770;-51
2022/06/09 06:26:57;;;;;;;;;7.25;7.25;18.40;99.90;;;;;;4936266;28;10750;-48
2022/06/09 06:29:30;;;;;;;;;6.00;6.00;18.30;99.90;;;;;;4927637;28;11492;-53
2022/06/09 06:32:00;;;;;;;;;4.00;4.00;18.30;99.90;;;;;;4921820;28;10593;-51
2022/06/09 06:34:30;;;;;;;;;2.75;2.75;18.30;99.90;;;;;;4928756;28;10515;-48
2022/06/09 06:37:01;;;;;;;;;3.00;3.00;18.30;99.90;;;;;;4929648;28;10401;-49
2022/06/09 06:39:31;;;;;;;;;3.25;1.75;18.20;99.90;;;;;;4932299;28;10592;-52
2022/06/09 06:42:01;;;;;;;;;2.00;2.00;18.20;99.90;;;;;;4926243;28;9926;-49
2022/06/09 06:44:37;;;;;;;;;1.50;1.50;18.20;99.90;;;;;;4934249;28;10138;-51
2022/06/09 06:47:07;;;;;;;;;0.75;0.75;18.20;99.90;;;;;;4928728;28;9906;-50
2022/06/09 06:49:38;;;;;;;;;0.75;0.75;18.10;99.90;;;;;;4928183;28;9996;-52
2022/06/09 06:52:09;;;;;;;;;4.50;3.00;18.10;99.90;;;;;;4929832;28;9782;-50
2022/06/09 06:54:39;;;;;;;;;1.00;1.00;18.10;99.90;;;;;;4929739;28;9841;-52
2022/06/09 06:57:10;;;;;;;;;3.00;1.00;18.10;99.90;;;;;;4928508;28;9853;-51
2022/06/09 06:59:41;;;;;;;;;1.25;1.25;18.10;99.90;;;;;;4935770;28;9797;-49
2022/06/09 07:02:12;;;;;;;;;5.50;2.25;18.00;99.90;;;;;;4931031;28;9922;-53
2022/06/09 07:04:42;;;;;;;;;2.50;2.50;18.00;99.90;;;;;;4927964;28;9859;-50
2022/06/09 07:07:13;;;;;;;;;3.25;2.00;18.10;99.90;;;;;;4931770;28;9975;-50
2022/06/09 07:09:43;;;;;;;;;3.75;2.25;18.00;99.90;;;;;;4927464;28;9828;-51
2022/06/09 07:12:15;;;;;;;;;1.00;1.00;18.00;99.90;;;;;;4920854;28;10024;-51
2022/06/09 07:14:45;;;;;;;;;2.75;2.75;18.00;99.90;;;;;;4931271;28;11110;-50
2022/06/09 07:17:18;;;;;;;;;2.00;2.00;18.00;99.90;;;;;;4929184;28;9772;-51
2022/06/09 07:19:49;;;;;;;;;3.75;2.00;17.90;99.90;;;;;;4920976;28;10032;-51
2022/06/09 07:22:19;;;;;;;;;3.25;2.00;18.00;99.90;;;;;;4930082;28;9902;-49
2022/06/09 07:24:49;;;;;;;;;1.00;1.00;17.90;99.90;;;;;;4931449;28;10167;-52
2022/06/09 07:27:20;;;;;;;;;4.75;2.00;17.90;99.90;;;;;;4930898;28;10092;-50
2022/06/09 07:29:51;;;;;;;;;2.75;2.75;17.90;99.90;;;;;;4928543;28;9967;-50
2022/06/09 07:32:23;;;;;;;;;1.00;1.00;17.80;99.90;;;;;;4930181;28;10004;-51
2022/06/09 07:34:53;;;;;;;;;3.00;3.00;17.70;99.90;;;;;;4928031;28;10068;-51
2022/06/09 07:37:24;;;;;;;;;2.00;2.00;17.80;99.90;;;;;;4938447;28;9994;-49
2022/06/09 07:39:54;;;;;;;;;2.00;2.00;17.70;99.90;;;;;;4928889;28;10064;-49
2022/06/09 07:42:26;;;;;;;;;2.25;1.25;17.70;99.90;;;;;;4927942;28;10200;-52
2022/06/09 07:44:57;;;;;;;;;1.75;1.75;17.70;99.90;;;;;;4926781;28;10268;-51
2022/06/09 07:47:28;;;;;;;;;1.25;1.25;17.60;99.90;;;;;;4935398;28;10250;-52
2022/06/09 07:49:59;;;;;;;;;1.50;1.50;17.60;99.90;;;;;;4928575;28;10452;-52
2022/06/09 07:52:36;;;;;;;;;1.75;1.75;17.60;99.90;;;;;;4931596;28;10446;-49
2022/06/09 07:55:06;;;;;;;;;1.50;1.50;17.60;99.90;;;;;;4925850;28;10468;-50
2022/06/09 07:57:38;;;;;;;;;2.50;1.00;17.60;99.90;;;;;;4933846;28;10480;-52
2022/06/09 08:00:11;;;;;;;;;2.75;2.75;17.60;99.90;;;;;;4928538;28;10591;-52
2022/06/09 08:02:43;;;;;;;;;2.00;2.00;17.60;99.90;;;;;;4932347;28;10463;-51
2022/06/09 08:05:16;;;;;;;;;1.00;1.00;17.60;99.90;;;;;;4928581;28;11746;-47
2022/06/09 08:07:47;;;;;;;;;2.00;2.00;17.50;99.90;;;;;;4931382;28;10724;-52
2022/06/09 08:10:23;;;;;;;;;1.75;1.75;17.50;99.90;;;;;;4928881;28;10689;-50
2022/06/09 08:12:57;;;;;;;;;2.00;2.00;17.40;99.90;;;;;;4932212;28;11034;-49
2022/06/09 08:15:35;;;;;;;;;1.00;1.00;17.50;99.90;;;;;;4927080;28;11074;-52
2022/06/09 08:18:07;;;;;;;;;2.75;2.75;17.50;99.90;;;;;;4931801;28;11549;-53
2022/06/09 08:20:41;;;;;;;;;6.00;6.00;17.50;99.90;;;;;;4931863;28;11552;-51
2022/06/09 08:23:28;;;;;;;;;6.50;6.50;17.50;99.90;;;;;;4930689;28;12367;-50
2022/06/09 08:25:59;;;;;;;;;5.75;5.75;17.50;99.90;;;;;;4929559;28;11594;-47
2022/06/09 08:28:29;;;;;;;;;5.75;5.75;17.50;99.90;;;;;;4929441;28;11780;-49
2022/06/09 08:31:00;;;;;;;;;7.50;7.50;17.40;99.90;;;;;;4930493;28;11588;-51
2022/06/09 08:33:30;;;;;;;;;9.00;9.00;17.30;99.90;;;;;;4923757;28;11567;-51
2022/06/09 08:36:00;;;;;;;;;7.50;7.50;17.30;99.90;;;;;;4931401;28;11570;-53
2022/06/09 08:38:33;;;;;;;;;13.75;12.25;17.30;99.90;;;;;;4921813;28;11592;-50
2022/06/09 08:41:17;;;;;;;;;11.50;11.50;17.30;99.90;;;;;;4925831;28;11568;-50
2022/06/09 08:43:59;;;;;;;;;32.75;30.75;17.30;99.90;;;;;;4930925;28;12724;-49
2022/06/09 08:46:46;;;;;;;;;35.75;33.00;17.30;99.90;;;;;;4925953;28;11724;-47
2022/06/09 08:49:56;;;;;;;;;42.75;36.75;17.30;99.90;;;;;;4930836;28;12372;-49
2022/06/09 08:52:29;;;;;;;;;47.25;39.75;17.30;99.90;;;;;;4926029;28;11799;-51
2022/06/09 08:55:02;;;;;;;;;46.00;40.00;17.30;99.90;;;;;;4927653;28;11636;-51
2022/06/09 08:57:36;;;;;;;;;43.50;38.00;17.30;99.90;;;;;;4927880;28;11635;-50
2022/06/09 09:00:10;;;;;;;;;45.50;38.75;17.30;99.90;;;;;;4928685;28;11615;-49
2022/06/09 09:02:52;;;;;;;;;44.00;38.00;17.20;99.90;;;;;;4923609;28;11599;-48
2022/06/09 09:05:31;;;;;;;;;42.75;37.50;17.30;99.90;;;;;;4927578;28;11789;-50
2022/06/09 09:08:08;;;;;;;;;42.50;37.25;17.20;99.90;;;;;;4929579;28;12343;-49
2022/06/09 09:10:55;;;;;;;;;45.75;39.00;17.20;99.90;;;;;;4927057;28;11682;-51
2022/06/09 09:13:39;;;;;;;;;45.25;38.75;17.20;99.90;;;;;;4926265;28;11679;-52
2022/06/09 09:16:25;;;;;;;;;46.50;39.75;17.20;99.90;;;;;;4923445;28;11615;-49
2022/06/09 09:19:03;;;;;;;;;49.00;42.00;17.10;99.90;;;;;;4930020;28;13690;-50
2022/06/09 09:21:47;;;;;;;;;50.25;43.25;17.10;99.90;;;;;;4924465;28;11619;-48
2022/06/09 09:24:44;;;;;;;;;45.50;38.50;17.10;99.90;;;;;;4930133;28;11768;-51
2022/06/09 09:27:43;;;;;;;;;38.00;34.25;17.10;99.90;;;;;;4923519;28;12384;-50
2022/06/09 09:30:28;;;;;;;;;38.75;34.50;17.10;99.90;;;;;;4920518;28;11617;-48
2022/06/09 09:32:58;;;;;;;;;37.00;33.75;17.10;99.90;;;;;;4925701;28;11658;-49
2022/06/09 09:35:40;;;;;;;;;38.25;34.50;17.00;99.90;;;;;;4928424;28;11643;-49
2022/06/09 09:38:16;;;;;;;;;35.50;31.25;17.00;99.90;;;;;;4930754;28;11659;-48
2022/06/09 09:40:57;;;;;;;;;37.75;32.50;17.00;99.90;;;;;;4930734;28;11645;-49
2022/06/09 09:43:36;;;;;;;;;29.75;28.25;17.00;99.90;;;;;;4926905;28;11696;-49
2022/06/09 09:46:20;;;;;;;;;28.25;26.00;17.00;99.90;;;;;;4922210;28;11657;-49
2022/06/09 09:48:50;;;;;;;;;28.50;26.25;16.90;99.90;;;;;;4929036;28;11628;-49
2022/06/09 09:51:37;;;;;;;;;30.25;28.50;16.90;99.90;;;;;;4927809;28;11709;-53
2022/06/09 09:54:21;;;;;;;;;25.00;23.75;16.80;99.90;;;;;;4928892;28;11663;-51
2022/06/09 09:57:13;;;;;;;;;25.75;24.50;16.80;99.90;;;;;;4924822;28;11646;-52
2022/06/09 09:59:46;;;;;;;;;25.75;25.75;16.80;99.90;;;;;;4924382;28;11638;-50
2022/06/09 10:08:39;;;;;;;;;4.00;4.00;16.70;99.90;;;;;;4927690;28;11623;-51
2022/06/09 10:11:54;;;;;;;;;5.00;5.00;16.70;99.90;;;;;;4921162;28;11186;-52
2022/06/09 10:15:14;;;;;;;;;3.00;3.00;16.70;99.90;;;;;;4928263;28;11191;-50
2022/06/09 10:18:11;;;;;;;;;4.25;4.25;16.70;99.90;;;;;;4927266;28;11072;-47
2022/06/09 10:21:11;;;;;;;;;2.25;2.25;16.70;99.90;;;;;;4925216;28;10598;-53
2022/06/09 10:23:54;;;;;;;;;4.00;4.00;16.70;99.90;;;;;;4935684;28;10553;-49
2022/06/09 10:26:31;;;;;;;;;3.25;2.75;16.70;99.90;;;;;;4928601;28;10601;-51
2022/06/09 10:29:20;;;;;;;;;3.75;3.75;16.70;99.90;;;;;;4927738;28;10550;-49
2022/06/09 10:32:02;;;;;;;;;2.75;2.75;16.60;99.90;;;;;;4926893;28;10659;-52
2022/06/09 10:34:43;;;;;;;;;2.50;1.75;16.60;99.90;;;;;;4942767;28;11477;-52
2022/06/09 10:37:48;;;;;;;;;3.00;3.00;16.50;99.90;;;;;;4926265;28;10696;-51
2022/06/09 10:40:36;;;;;;;;;3.50;3.50;16.60;99.90;;;;;;4922122;28;10595;-49
2022/06/09 10:43:33;;;;;;;;;2.50;2.50;16.60;99.90;;;;;;4931491;28;10638;-53
2022/06/09 10:46:31;;;;;;;;;2.25;2.25;16.60;99.90;;;;;;4922864;28;10642;-52
2022/06/09 10:55:27;;;;;;;;;5.50;4.50;16.50;99.90;;;;;;4924052;28;10651;-49
2022/06/09 10:58:38;;;;;;;;;5.00;5.00;16.40;99.90;;;;;;4930287;28;10682;-50
2022/06/09 11:01:19;;;;;;;;;3.00;3.00;16.40;99.90;;;;;;4902168;28;10596;-51
2022/06/09 11:03:50;;;;;;;;;4.00;4.00;16.40;99.90;;;;;;4934064;28;10643;-48
2022/06/09 11:06:33;;;;;;;;;2.25;2.00;16.40;99.90;;;;;;4923681;28;10518;-51
2022/06/09 11:09:17;;;;;;;;;4.00;4.00;16.40;99.90;;;;;;4921698;28;10510;-50
2022/06/09 11:12:21;;;;;;;;;3.75;3.75;16.40;99.90;;;;;;4925249;28;10569;-49
2022/06/09 11:15:02;;;;;;;;;5.75;5.25;16.40;99.90;;;;;;4929744;28;10613;-52
2022/06/09 11:17:56;;;;;;;;;2.25;2.25;16.30;99.90;;;;;;4926123;28;10950;-51
2022/06/09 11:20:53;;;;;;;;;3.25;3.25;16.30;99.90;;;;;;4931574;28;10517;-49
2022/06/09 11:23:52;;;;;;;;;3.75;3.75;16.30;99.90;;;;;;4931103;28;10590;-50
2022/06/09 11:26:32;;;;;;;;;4.50;4.50;16.30;99.90;;;;;;4921876;28;10571;-53
2022/06/09 11:29:20;;;;;;;;;4.00;2.50;16.30;99.90;;;;;;4931318;28;10764;-47
2022/06/09 11:31:56;;;;;;;;;3.00;3.00;16.30;99.90;;;;;;4928719;28;10607;-48
2022/06/09 11:34:35;;;;;;;;;3.00;3.00;16.20;99.90;;;;;;4933000;28;10639;-50
2022/06/09 11:37:21;;;;;;;;;6.25;3.50;16.20;99.90;;;;;;4931595;28;10875;-51
2022/06/09 11:40:02;;;;;;;;;4.25;4.25;16.20;99.90;;;;;;4928706;28;10631;-47
2022/06/09 11:42:57;;;;;;;;;4.25;4.25;16.20;99.90;;;;;;4932536;28;10565;-51
2022/06/09 11:45:49;;;;;;;;;2.75;2.75;16.20;99.90;;;;;;4928335;28;11508;-49
2022/06/09 11:48:31;;;;;;;;;3.25;1.75;16.20;99.90;;;;;;4924781;28;10510;-52
2022/06/09 11:51:04;;;;;;;;;3.75;3.75;16.20;99.90;;;;;;4931875;28;10789;-48
2022/06/09 11:53:45;;;;;;;;;6.25;5.50;16.20;99.90;;;;;;4931856;28;10551;-53
2022/06/09 11:56:37;;;;;;;;;4.00;4.00;16.20;99.90;;;;;;4933184;28;10750;-50
2022/06/09 11:59:13;;;;;;;;;4.00;2.75;16.20;99.90;;;;;;4928403;28;10596;-49
2022/06/09 12:01:49;;;;;;;;;3.25;3.00;16.20;99.90;;;;;;4929508;28;10796;-48
2022/06/09 12:04:52;;;;;;;;;5.75;4.25;16.20;99.90;;;;;;4930788;28;10723;-49
2022/06/09 12:07:37;;;;;;;;;6.50;4.50;16.10;99.90;;;;;;4935382;28;10740;-50
2022/06/09 12:10:33;;;;;;;;;3.50;3.50;16.10;99.90;;;;;;4936678;28;11807;-49
2022/06/09 12:13:19;;;;;;;;;7.50;5.75;16.10;99.90;;;;;;4932561;28;10555;-49
2022/06/09 12:16:01;;;;;;;;;3.50;3.50;16.10;99.90;;;;;;4928009;28;10447;-50
2022/06/09 12:18:46;;;;;;;;;3.75;3.75;16.10;99.90;;;;;;4927861;28;10735;-52
2022/06/09 12:21:46;;;;;;;;;3.25;3.00;16.10;99.90;;;;;;4932708;28;10726;-52
2022/06/09 12:24:21;;;;;;;;;4.50;4.50;16.10;99.90;;;;;;4933098;28;11318;-48
2022/06/09 12:27:14;;;;;;;;;4.50;4.00;16.10;99.90;;;;;;4935926;28;10610;-51
2022/06/09 12:30:06;;;;;;;;;3.25;3.25;16.10;99.90;;;;;;4926327;28;10718;-50
2022/06/09 12:32:43;;;;;;;;;3.50;3.50;16.10;99.90;;;;;;4929881;28;10789;-48
2022/06/09 12:35:39;;;;;;;;;3.00;3.00;16.10;99.90;;;;;;4932184;28;10855;-47
2022/06/09 12:38:36;;;;;;;;;4.00;4.00;16.00;99.90;;;;;;4930143;28;10676;-49
2022/06/09 12:41:32;;;;;;;;;3.50;3.50;16.00;99.90;;;;;;4931472;28;10712;-50
2022/06/09 12:44:23;;;;;;;;;3.75;3.75;16.00;99.90;;;;;;4928852;28;11528;-53
2022/06/09 12:47:12;;;;;;;;;4.50;4.50;16.00;99.90;;;;;;4927255;28;10974;-49
2022/06/09 12:49:43;;;;;;;;;3.25;3.25;16.00;99.90;;;;;;4928806;28;10626;-49
2022/06/09 12:52:28;;;;;;;;;4.75;4.75;16.00;99.90;;;;;;4931306;28;10617;-53
2022/06/09 12:55:15;;;;;;;;;7.25;5.75;15.90;99.90;;;;;;4936680;28;10679;-48
2022/06/09 12:57:48;;;;;;;;;5.00;3.00;15.90;99.90;;;;;;4926091;28;10608;-52
2022/06/09 13:00:29;;;;;;;;;2.00;2.00;15.90;99.90;;;;;;4927022;28;10415;-49
2022/06/09 13:02:59;;;;;;;;;6.00;6.00;15.90;99.90;;;;;;4932259;28;10664;-49
2022/06/09 13:05:36;;;;;;;;;4.50;4.00;15.90;99.90;;;;;;4925723;28;10804;-49
2022/06/09 13:08:20;;;;;;;;;6.00;3.00;15.90;99.90;;;;;;4927391;28;10717;-48
2022/06/09 13:11:03;;;;;;;;;5.75;3.00;15.90;99.90;;;;;;4925317;28;10616;-50
2022/06/09 13:13:41;;;;;;;;;4.75;4.00;15.90;99.90;;;;;;4930256;28;10613;-47
2022/06/09 13:16:23;;;;;;;;;6.50;6.25;15.90;99.90;;;;;;4929751;28;10725;-51
2022/06/09 13:19:01;;;;;;;;;7.00;4.25;15.90;99.90;;;;;;4928505;28;10817;-48
2022/06/09 13:21:39;;;;;;;;;6.00;6.00;15.90;99.90;;;;;;4926828;28;11685;-47
2022/06/09 13:24:29;;;;;;;;;4.00;4.00;15.90;99.90;;;;;;4926333;28;10837;-49
2022/06/09 13:27:01;;;;;;;;;4.50;4.50;15.90;99.90;;;;;;4925153;28;11071;-51
2022/06/09 13:29:39;;;;;;;;;4.00;3.50;15.90;99.90;;;;;;4928502;28;10798;-47
2022/06/09 13:32:19;;;;;;;;;5.00;3.50;15.90;99.90;;;;;;4926826;28;10776;-48
2022/06/09 13:34:52;;;;;;;;;4.50;4.50;15.90;99.90;;;;;;4926131;28;10836;-52
2022/06/09 13:37:37;;;;;;;;;7.00;6.00;15.90;99.90;;;;;;4930491;28;11135;-49
2022/06/09 13:40:15;;;;;;;;;3.50;2.50;15.90;99.90;;;;;;4924851;28;10970;-48
2022/06/09 13:43:00;;;;;;;;;5.50;5.50;15.90;99.90;;;;;;4931921;28;10966;-51
2022/06/09 13:45:34;;;;;;;;;5.00;5.00;15.90;99.90;;;;;;4927009;28;10804;-48
2022/06/09 13:48:12;;;;;;;;;6.00;3.75;15.90;99.90;;;;;;4928708;28;10967;-51
2022/06/09 13:51:06;;;;;;;;;8.25;5.75;15.90;99.90;;;;;;4925325;28;10836;-51
2022/06/09 13:53:46;;;;;;;;;7.50;4.00;16.00;99.90;;;;;;4925359;28;10810;-49
2022/06/09 13:56:17;;;;;;;;;7.00;5.00;15.90;99.90;;;;;;4927415;28;10881;-48
2022/06/09 13:58:48;;;;;;;;;4.50;4.50;16.00;99.90;;;;;;4927063;28;10677;-50
2022/06/09 14:01:18;;;;;;;;;4.75;4.00;16.00;99.90;;;;;;4928039;28;10759;-50
2022/06/09 14:03:51;;;;;;;;;4.75;4.25;16.00;99.90;;;;;;4926940;28;10718;-52